»·PEaware :: N969DA KEUG-S21

N969DA :: KEUG-S21

FLIGHT INFORMATION

Flight Status: Arrived
Operator: Privately registered:
United States
More flights under this callsign
Pilot: Anonymous 20880 (20880)
Aircraft: Unknown
(DA62)
More flights by this aircraft type
Origin: KEUG Mahlon Sweet
United States
Destination: S21 Sunriver
United States
More flights between these airports :: More routes between these airports
Route: +EUG1 MANTE V536 DSD
File this flight plan on PilotEdge
Remarks:
Altitude:
(Current/Filed)
10,000ft
Speed:
(Current/Filed)
140kts
Departed: 19-Dec-18 10:01 PM
Arrived: 19-Dec-18 10:56 PM
Distance/Time
Traveled:
78nm/0:55
Distance/Time
To Go:
Arrived

Flight Plot

Page will automatically refresh every two minutes.

Flight plan parsing failed; only flown route is shown


Map Options




Map Legend


Flown Route
Filed Route
Departure Airport
Arrival Airport
Navaid (VOR, NDB)
Fix

Horizontal Profiles

Position Reports

Time Latitude Longitude Heading Altitude Ground
Speed
19-Dec-18 21:40 44.123729 -123.210661 209 364ft 0kts
19-Dec-18 21:41 44.123729 -123.210661 209 364ft 0kts
19-Dec-18 21:42 44.123729 -123.210661 209 364ft 0kts
19-Dec-18 21:43 44.123729 -123.210661 209 364ft 0kts
19-Dec-18 21:44 44.123729 -123.210661 209 364ft 0kts
19-Dec-18 21:45 44.123729 -123.210661 209 364ft 0kts
19-Dec-18 21:46 44.123729 -123.210661 209 364ft 0kts
19-Dec-18 21:47 44.123729 -123.210661 209 364ft 0kts
19-Dec-18 21:48 44.123729 -123.210661 209 364ft 0kts
19-Dec-18 21:49 44.123729 -123.210661 209 364ft 0kts
19-Dec-18 21:50 44.123708 -123.210692 244 364ft 0kts
19-Dec-18 21:51 44.126341 -123.210290 297 361ft 13kts
19-Dec-18 21:52 44.127467 -123.217117 358 360ft 22kts
19-Dec-18 21:53 44.134237 -123.216814 39 355ft 1kts
19-Dec-18 21:54 44.134239 -123.216811 39 355ft 0kts
19-Dec-18 21:55 44.134239 -123.216811 39 355ft 0kts
19-Dec-18 21:56 44.134239 -123.216811 39 355ft 0kts
19-Dec-18 21:57 44.134239 -123.216811 39 355ft 0kts
19-Dec-18 21:58 44.135307 -123.217540 268 355ft 12kts
19-Dec-18 21:59 44.135187 -123.219194 187 355ft 12kts
19-Dec-18 22:00 44.111399 -123.219278 181 1171ft 106kts
19-Dec-18 22:01 44.083203 -123.217963 174 2703ft 107kts
19-Dec-18 22:02 44.071423 -123.194586 60 3855ft 112kts
19-Dec-18 22:03 44.083676 -123.151080 64 4834ft 126kts
19-Dec-18 22:04 44.095362 -123.104184 64 5834ft 132kts
19-Dec-18 22:05 44.107151 -123.055312 64 6827ft 137kts
19-Dec-18 22:06 44.119265 -123.008262 65 7736ft 145kts
19-Dec-18 22:07 44.136053 -122.964506 64 8420ft 149kts
19-Dec-18 22:08 44.147476 -122.935082 64 8876ft 151kts
19-Dec-18 22:09 44.159899 -122.903055 64 9195ft 163kts
19-Dec-18 22:10 44.176233 -122.861116 64 9795ft 161kts
19-Dec-18 22:11 44.195028 -122.813507 64 10480ft 162kts
19-Dec-18 22:12 44.214480 -122.764904 64 11178ft 164kts
19-Dec-18 22:13 44.236679 -122.710220 64 11958ft 166kts
19-Dec-18 22:14 44.259627 -122.654190 64 12747ft 169kts
19-Dec-18 22:15 44.284342 -122.593106 64 13025ft 198kts
19-Dec-18 22:16 44.310273 -122.524405 70 13019ft 204kts
19-Dec-18 22:17 44.331074 -122.451231 74 13018ft 205kts
19-Dec-18 22:18 44.350812 -122.377636 74 13018ft 205kts
19-Dec-18 22:19 44.370148 -122.304974 75 13025ft 204kts
19-Dec-18 22:20 44.373397 -122.237121 110 13037ft 188kts
19-Dec-18 22:21 44.366131 -122.179771 110 13053ft 188kts
19-Dec-18 22:22 44.359106 -122.123924 110 13067ft 188kts
19-Dec-18 22:23 44.351658 -122.064812 110 13076ft 189kts
19-Dec-18 22:24 44.344549 -122.008589 110 13083ft 189kts
19-Dec-18 22:25 44.338182 -121.958423 110 13087ft 189kts
19-Dec-18 22:26 44.332158 -121.909969 103 13085ft 193kts
19-Dec-18 22:27 44.340444 -121.851737 83 13091ft 202kts
19-Dec-18 22:28 44.350008 -121.792709 83 13091ft 202kts
19-Dec-18 22:29 44.359738 -121.732601 84 13091ft 202kts
19-Dec-18 22:30 44.361235 -121.667960 97 12957ft 200kts
19-Dec-18 22:31 44.360182 -121.610216 102 12737ft 197kts
19-Dec-18 22:32 44.358005 -121.564007 102 12692ft 188kts
19-Dec-18 22:33 44.355540 -121.519985 104 12748ft 181kts
19-Dec-18 22:34 44.349864 -121.481518 123 12803ft 168kts
19-Dec-18 22:35 44.339810 -121.447381 124 12863ft 167kts
19-Dec-18 22:36 44.329973 -121.414949 128 12910ft 165kts
19-Dec-18 22:37 44.318311 -121.383230 129 12865ft 168kts
19-Dec-18 22:38 44.306676 -121.352077 129 12820ft 170kts
19-Dec-18 22:39 44.290760 -121.326573 148 12753ft 159kts
19-Dec-18 22:40 44.270076 -121.304695 168 12662ft 139kts
19-Dec-18 22:41 44.244322 -121.306285 203 12598ft 112kts
19-Dec-18 22:42 44.221353 -121.315860 202 12599ft 105kts
19-Dec-18 22:43 44.204137 -121.322809 202 12004ft 101kts
19-Dec-18 22:44 44.188339 -121.329159 201 11503ft 105kts
19-Dec-18 22:45 44.171155 -121.336410 200 11068ft 110kts
19-Dec-18 22:46 44.142449 -121.347821 198 10452ft 127kts
19-Dec-18 22:47 44.110450 -121.360311 197 9395ft 111kts
19-Dec-18 22:48 44.080809 -121.372076 196 8333ft 118kts
19-Dec-18 22:49 44.048159 -121.385012 195 7603ft 124kts
19-Dec-18 22:50 44.014798 -121.398223 195 6896ft 126kts
19-Dec-18 22:51 43.980927 -121.411620 194 6192ft 127kts
19-Dec-18 22:52 43.946767 -121.425168 194 5496ft 129kts
19-Dec-18 22:53 43.915032 -121.437777 193 4928ft 90kts
19-Dec-18 22:54 43.891518 -121.447052 192 4405ft 82kts
19-Dec-18 22:55 43.875908 -121.453227 197 4161ft 5kts
19-Dec-18 22:56 43.875722 -121.454438 233 4161ft 0kts
19-Dec-18 22:57 43.875722 -121.454438 233 4161ft 0kts
19-Dec-18 22:58 43.875722 -121.454438 233 4161ft 0kts
19-Dec-18 22:59 43.875722 -121.454438 233 4161ft 0kts
19-Dec-18 23:00 43.875722 -121.454438 233 4161ft 0kts
19-Dec-18 23:01 43.875722 -121.454438 233 4161ft 0kts
19-Dec-18 23:02 43.875722 -121.454438 233 4161ft 0kts
19-Dec-18 23:03 43.875722 -121.454438 233 4161ft 0kts

Navigation Log

Ident Type
Flight plan parsing failed, navigation log unavailable